createdAt,value
2023-05-10T00:01:42.824Z,3.00
2023-05-10T00:04:10.144Z,5.75
2023-05-10T00:06:36.522Z,6.00
2023-05-10T00:09:02.882Z,4.33
2023-05-10T00:11:29.227Z,5.00
2023-05-10T00:13:56.435Z,6.25
2023-05-10T00:16:22.900Z,5.67
2023-05-10T00:18:49.281Z,6.00
2023-05-10T00:21:15.707Z,5.00
2023-05-10T00:23:42.043Z,6.00
2023-05-10T00:26:08.379Z,5.00
2023-05-10T00:28:34.710Z,5.67
2023-05-10T00:33:44.854Z,6.00
2023-05-10T00:36:11.171Z,4.67
2023-05-10T00:38:37.510Z,5.00
2023-05-10T00:41:03.868Z,5.00
2023-05-10T00:43:30.200Z,5.00
2023-05-10T00:48:40.523Z,5.33
2023-05-10T00:51:06.877Z,5.00
2023-05-10T00:53:33.193Z,5.00
2023-05-10T00:55:59.579Z,5.00
2023-05-10T00:58:25.951Z,4.00
2023-05-10T01:03:36.504Z,4.00
2023-05-10T01:06:02.841Z,5.00
2023-05-10T01:08:29.154Z,5.00
2023-05-10T01:10:55.478Z,4.67
2023-05-10T01:13:22.078Z,4.00
2023-05-10T01:18:42.474Z,4.67
2023-05-10T01:21:09.673Z,4.50
2023-05-10T01:23:36.077Z,4.00
2023-05-10T01:26:02.411Z,4.00
2023-05-10T01:28:28.773Z,3.00
2023-05-10T01:33:39.043Z,4.67
2023-05-10T01:36:05.389Z,4.33
2023-05-10T01:38:31.737Z,5.00
2023-05-10T01:40:58.056Z,4.67
2023-05-10T01:43:24.398Z,4.00
2023-05-10T01:48:44.832Z,4.33
2023-05-10T01:51:11.192Z,4.00
2023-05-10T01:53:37.557Z,5.00
2023-05-10T01:56:03.922Z,4.00
2023-05-10T01:58:30.260Z,4.00
2023-05-10T02:03:40.667Z,4.00
2023-05-10T02:06:07.069Z,4.67
2023-05-10T02:08:33.412Z,1.00
2023-05-10T02:10:59.762Z,2.00
2023-05-10T02:13:26.161Z,4.00
2023-05-10T02:18:46.236Z,4.00
2023-05-10T02:21:12.590Z,3.33
2023-05-10T02:23:38.954Z,4.00
2023-05-10T02:26:05.295Z,4.33
2023-05-10T02:28:31.639Z,5.00
2023-05-10T02:33:41.733Z,4.00
2023-05-10T02:36:08.063Z,3.67
2023-05-10T02:38:34.419Z,4.00
2023-05-10T02:41:00.766Z,4.00
2023-05-10T02:43:27.119Z,4.00
2023-05-10T02:48:37.556Z,4.67
2023-05-10T02:51:03.946Z,3.33
2023-05-10T02:53:30.299Z,5.00
2023-05-10T02:55:56.655Z,4.67
2023-05-10T02:58:23.015Z,4.00
2023-05-10T03:00:49.370Z,4.33
2023-05-10T03:03:15.699Z,5.00
2023-05-10T03:05:42.022Z,4.67
2023-05-10T03:08:08.386Z,4.00
2023-05-10T03:10:34.725Z,4.00
2023-05-10T03:13:01.102Z,3.00
2023-05-10T03:15:27.438Z,5.00
2023-05-10T03:17:53.854Z,4.67
2023-05-10T03:20:21.112Z,4.25
2023-05-10T03:22:47.461Z,5.00
2023-05-10T03:25:13.812Z,4.00
2023-05-10T03:27:40.128Z,4.33
2023-05-10T03:30:06.518Z,4.00
2023-05-10T03:32:32.978Z,4.00
2023-05-10T03:34:59.403Z,4.00
2023-05-10T03:37:25.760Z,5.00
2023-05-10T03:39:52.166Z,4.67
2023-05-10T03:42:18.618Z,4.00
2023-05-10T03:44:44.939Z,4.00
2023-05-10T03:47:11.450Z,4.00
2023-05-10T03:49:37.785Z,5.00
2023-05-10T03:52:04.219Z,5.00
2023-05-10T03:54:30.574Z,3.67
2023-05-10T03:56:57.143Z,4.00
2023-05-10T03:59:23.533Z,3.33
2023-05-10T04:01:49.948Z,4.00
2023-05-10T04:07:00.058Z,4.00
2023-05-10T04:09:27.294Z,11.67
2023-05-10T04:11:53.730Z,10.00
2023-05-10T04:14:20.120Z,10.00
2023-05-10T04:16:47.421Z,7.00
2023-05-10T04:22:07.845Z,17.50
2023-05-10T04:24:34.319Z,25.50
2023-05-10T04:27:00.792Z,22.00
2023-05-10T04:29:28.266Z,16.67
2023-05-10T04:31:55.614Z,14.67
2023-05-10T04:37:06.878Z,9.67
2023-05-10T04:39:35.153Z,8.40
2023-05-10T04:42:01.600Z,16.00
2023-05-10T04:44:28.989Z,16.33
2023-05-10T04:46:55.404Z,12.00
2023-05-10T04:52:16.935Z,9.50
2023-05-10T04:54:43.614Z,8.00
2023-05-10T04:57:12.163Z,8.20
2023-05-10T04:59:38.835Z,8.50
2023-05-10T05:02:05.449Z,23.00
2023-05-10T05:07:45.892Z,10.00
2023-05-10T05:10:15.212Z,8.17
2023-05-10T05:12:41.727Z,10.50
2023-05-10T05:15:10.958Z,7.17
2023-05-10T05:17:38.256Z,6.00
2023-05-10T05:22:48.164Z,6.00
2023-05-10T05:25:15.530Z,17.40
2023-05-10T05:27:42.025Z,12.00
2023-05-10T05:30:10.369Z,9.60
2023-05-10T05:32:36.854Z,7.00
2023-05-10T05:35:03.360Z,9.00
2023-05-10T05:37:29.846Z,8.00
2023-05-10T05:39:58.992Z,6.83
2023-05-10T05:42:25.373Z,6.33
2023-05-10T05:44:54.509Z,6.00
2023-05-10T05:47:21.051Z,6.00
2023-05-10T05:52:31.670Z,5.00
2023-05-10T05:54:58.046Z,5.00
2023-05-10T05:57:24.408Z,5.00
2023-05-10T05:59:50.760Z,5.00
2023-05-10T06:02:17.227Z,5.00
2023-05-10T06:07:27.449Z,5.00
2023-05-10T06:09:53.784Z,6.67
2023-05-10T06:12:20.097Z,5.00
2023-05-10T06:14:46.419Z,5.00
2023-05-10T06:17:12.792Z,5.00
2023-05-10T06:22:22.823Z,4.00
2023-05-10T06:24:49.186Z,4.00
2023-05-10T06:27:15.547Z,4.67
2023-05-10T06:29:41.944Z,4.67
2023-05-10T06:32:08.265Z,5.00
2023-05-10T06:37:19.347Z,4.25
2023-05-10T06:39:45.696Z,4.00
2023-05-10T06:42:12.038Z,4.33
2023-05-10T06:44:38.389Z,4.00
2023-05-10T06:47:04.775Z,4.00
2023-05-10T06:49:31.121Z,4.00
2023-05-10T06:51:57.441Z,5.00
2023-05-10T06:54:23.789Z,4.33
2023-05-10T06:56:50.138Z,4.00
2023-05-10T06:59:16.531Z,4.00
2023-05-10T07:01:42.972Z,4.00
2023-05-10T07:04:10.375Z,5.00
2023-05-10T07:06:36.805Z,5.00
2023-05-10T07:09:03.130Z,3.67
2023-05-10T07:11:29.461Z,4.33
2023-05-10T07:13:55.800Z,4.00
2023-05-10T07:16:22.254Z,3.33
2023-05-10T07:18:48.661Z,3.67
2023-05-10T07:21:15.996Z,4.00
2023-05-10T07:23:44.834Z,3.67
2023-05-10T07:26:11.541Z,3.33
2023-05-10T07:28:37.876Z,4.00
2023-05-10T07:31:04.265Z,4.00
2023-05-10T07:33:30.683Z,3.67
2023-05-10T07:35:57.127Z,9.00
2023-05-10T07:38:27.056Z,10.71
2023-05-10T07:40:55.354Z,9.60
2023-05-10T07:43:22.669Z,11.33
2023-05-10T07:45:49.137Z,9.50
2023-05-10T07:48:15.641Z,9.00
2023-05-10T07:50:44.827Z,9.33
2023-05-10T07:53:11.214Z,6.33
2023-05-10T07:55:37.582Z,6.00
2023-05-10T07:58:03.911Z,4.33
2023-05-10T08:00:30.297Z,8.00
2023-05-10T08:02:57.048Z,10.00
2023-05-10T08:05:23.449Z,6.00
2023-05-10T08:10:33.954Z,12.00
2023-05-10T08:13:00.394Z,13.50
2023-05-10T08:15:26.918Z,8.00
2023-05-10T08:17:53.349Z,5.33
2023-05-10T08:20:19.906Z,3.67
2023-05-10T08:25:40.139Z,4.00
2023-05-10T08:28:06.517Z,3.00
2023-05-10T08:30:32.866Z,4.00
2023-05-10T08:32:59.342Z,3.33
2023-05-10T08:35:25.740Z,4.00
2023-05-10T08:40:36.232Z,3.00
2023-05-10T08:43:02.574Z,3.33
2023-05-10T08:45:29.018Z,11.00
2023-05-10T08:47:55.501Z,7.50
2023-05-10T08:50:21.930Z,6.00
2023-05-10T08:55:42.369Z,4.33
2023-05-10T08:58:08.737Z,3.00
2023-05-10T09:00:35.118Z,5.00
2023-05-10T09:03:01.554Z,6.00
2023-05-10T09:05:27.982Z,5.67
2023-05-10T09:10:38.151Z,5.00
2023-05-10T09:13:05.449Z,11.00
2023-05-10T09:15:31.817Z,7.00
2023-05-10T09:17:58.202Z,5.00
2023-05-10T09:20:24.584Z,4.00
2023-05-10T09:25:44.686Z,4.67
2023-05-10T09:28:11.035Z,4.00
2023-05-10T09:30:37.425Z,4.00
2023-05-10T09:33:03.850Z,4.00
2023-05-10T09:35:30.287Z,4.00
2023-05-10T09:40:40.322Z,5.00
2023-05-10T09:43:06.675Z,4.33
2023-05-10T09:45:33.156Z,6.67
2023-05-10T09:48:00.525Z,5.00
2023-05-10T09:50:26.875Z,4.67
2023-05-10T09:55:46.962Z,4.00
2023-05-10T09:58:13.394Z,4.00
2023-05-10T10:00:42.526Z,4.00
2023-05-10T10:03:09.764Z,4.00
2023-05-10T10:05:36.152Z,5.00
2023-05-10T10:10:46.987Z,4.00
2023-05-10T10:13:13.431Z,3.33
2023-05-10T10:15:39.892Z,4.00
2023-05-10T10:18:06.328Z,4.00
2023-05-10T10:20:32.674Z,4.00
2023-05-10T10:22:59.013Z,2.33
2023-05-10T10:25:25.457Z,9.00
2023-05-10T10:27:51.886Z,11.00
2023-05-10T10:30:19.104Z,6.75
2023-05-10T10:32:45.459Z,4.00
2023-05-10T10:35:12.716Z,4.50
2023-05-10T10:37:39.966Z,7.50
2023-05-10T10:40:06.409Z,11.50
2023-05-10T10:42:34.662Z,8.00
2023-05-10T10:45:01.010Z,5.67
2023-05-10T10:47:27.395Z,4.67
2023-05-10T10:49:53.770Z,4.00
2023-05-10T10:52:20.119Z,3.33
2023-05-10T10:54:46.470Z,3.00
2023-05-10T10:57:12.829Z,3.00
2023-05-10T10:59:39.169Z,4.00
2023-05-10T11:02:05.522Z,4.00
2023-05-10T11:04:31.969Z,4.00
2023-05-10T11:06:58.360Z,4.00
2023-05-10T11:09:24.701Z,3.67
2023-05-10T11:11:51.061Z,4.33
2023-05-10T11:14:17.401Z,3.33
2023-05-10T11:16:43.777Z,3.00
2023-05-10T11:19:10.274Z,3.67
2023-05-10T11:21:36.791Z,3.00
2023-05-10T11:24:03.177Z,4.00
2023-05-10T11:29:23.338Z,3.33
2023-05-10T11:31:49.782Z,9.00
2023-05-10T11:34:17.134Z,13.67
2023-05-10T11:36:43.541Z,7.00
2023-05-10T11:39:09.913Z,6.00
2023-05-10T11:44:20.253Z,4.33
2023-05-10T11:46:46.669Z,3.33
2023-05-10T11:49:13.109Z,4.67
2023-05-10T11:51:39.561Z,8.50
2023-05-10T11:54:09.526Z,12.57
2023-05-10T11:59:30.958Z,5.67
2023-05-10T12:01:57.297Z,5.00
2023-05-10T12:04:23.742Z,4.00
2023-05-10T12:06:51.022Z,8.67
2023-05-10T12:09:23.000Z,11.33
2023-05-10T12:14:42.211Z,6.00
2023-05-10T12:17:09.438Z,6.25
2023-05-10T12:19:35.777Z,5.00
2023-05-10T12:22:02.160Z,5.00
2023-05-10T12:24:28.817Z,4.67
2023-05-10T12:29:49.114Z,4.33
2023-05-10T12:32:15.562Z,4.00
2023-05-10T12:34:41.956Z,4.00
2023-05-10T12:37:09.233Z,4.00
2023-05-10T12:39:35.645Z,3.00
2023-05-10T12:44:45.990Z,4.00
2023-05-10T12:47:13.258Z,4.75
2023-05-10T12:49:39.648Z,5.00
2023-05-10T12:52:06.196Z,18.00
2023-05-10T12:54:32.630Z,7.00
2023-05-10T12:59:53.887Z,7.50
2023-05-10T13:02:21.221Z,9.67
2023-05-10T13:04:48.964Z,7.00
2023-05-10T13:07:17.299Z,6.00
2023-05-10T13:09:43.676Z,5.00
2023-05-10T13:14:54.631Z,5.25
2023-05-10T13:17:21.004Z,5.00
2023-05-10T13:19:47.415Z,5.33
2023-05-10T13:22:13.796Z,4.67
2023-05-10T13:24:40.212Z,5.33
2023-05-10T13:29:52.320Z,10.67
2023-05-10T13:32:18.721Z,7.00
2023-05-10T13:34:45.181Z,7.00
2023-05-10T13:37:11.604Z,5.00
2023-05-10T13:39:37.985Z,6.00
2023-05-10T13:44:48.027Z,4.33
2023-05-10T13:47:14.392Z,2.00
2023-05-10T13:49:40.922Z,4.67
2023-05-10T13:52:07.347Z,4.00
2023-05-10T13:54:33.726Z,3.00
2023-05-10T13:59:44.079Z,3.67
2023-05-10T14:02:10.608Z,2.00
2023-05-10T14:04:37.107Z,3.67
2023-05-10T14:07:03.499Z,4.00
2023-05-10T14:09:29.885Z,4.00
2023-05-10T14:14:40.170Z,4.67
2023-05-10T14:17:06.593Z,4.00
2023-05-10T14:19:33.017Z,3.33
2023-05-10T14:21:59.390Z,4.33
2023-05-10T14:24:25.748Z,4.00
2023-05-10T14:26:52.074Z,2.67
2023-05-10T14:29:18.477Z,3.33
2023-05-10T14:31:44.928Z,4.00
2023-05-10T14:34:11.352Z,3.67
2023-05-10T14:36:37.712Z,4.67
2023-05-10T14:39:04.618Z,3.33
2023-05-10T14:41:31.124Z,4.00
2023-05-10T14:43:57.525Z,2.00
2023-05-10T14:46:23.960Z,4.00
2023-05-10T14:48:50.359Z,5.00
2023-05-10T14:51:16.832Z,3.33
2023-05-10T14:53:43.212Z,4.00
2023-05-10T14:56:09.603Z,4.00
2023-05-10T14:58:35.953Z,2.00
2023-05-10T15:01:02.418Z,5.00
2023-05-10T15:03:30.257Z,8.25
2023-05-10T15:05:57.322Z,9.00
2023-05-10T15:08:23.722Z,7.00
2023-05-10T15:10:50.123Z,7.00
2023-05-10T15:13:16.501Z,6.00
2023-05-10T15:15:42.897Z,5.00
2023-05-10T15:18:09.398Z,9.00
2023-05-10T15:20:35.936Z,10.00
2023-05-10T15:23:02.409Z,7.00
2023-05-10T15:25:29.669Z,6.00
2023-05-10T15:27:56.198Z,11.00
2023-05-10T15:33:22.288Z,7.67
2023-05-10T15:35:49.548Z,7.50
2023-05-10T15:38:15.930Z,4.00
2023-05-10T15:40:42.303Z,6.00
2023-05-10T15:43:08.718Z,4.00
2023-05-10T15:48:18.862Z,4.00
2023-05-10T15:50:45.225Z,4.00
2023-05-10T15:53:11.657Z,4.00
2023-05-10T15:55:37.992Z,4.33
2023-05-10T15:58:04.352Z,5.00
2023-05-10T16:03:24.428Z,4.00
2023-05-10T16:05:50.783Z,4.33
2023-05-10T16:08:17.985Z,4.00
2023-05-10T16:10:44.318Z,4.33
2023-05-10T16:13:10.682Z,4.33
2023-05-10T16:18:21.028Z,4.33
2023-05-10T16:20:47.575Z,5.33
2023-05-10T16:23:14.020Z,5.00
2023-05-10T16:25:41.368Z,11.00
2023-05-10T16:28:10.766Z,9.67
2023-05-10T16:33:21.136Z,13.00
2023-05-10T16:35:49.557Z,10.80
2023-05-10T16:38:16.047Z,8.00
2023-05-10T16:40:42.511Z,9.00
2023-05-10T16:43:09.766Z,8.00
2023-05-10T16:48:20.152Z,6.00
2023-05-10T16:50:46.605Z,5.00
2023-05-10T16:53:12.988Z,4.67
2023-05-10T16:55:39.591Z,17.00
2023-05-10T16:58:08.855Z,7.50
2023-05-10T17:03:19.111Z,7.00
2023-05-10T17:05:45.584Z,7.00
2023-05-10T17:08:12.802Z,5.50
2023-05-10T17:10:39.162Z,7.00
2023-05-10T17:13:05.502Z,6.00
2023-05-10T17:18:15.906Z,5.33
2023-05-10T17:20:42.277Z,6.00
2023-05-10T17:23:09.485Z,4.00
2023-05-10T17:25:35.827Z,4.00
2023-05-10T17:28:02.161Z,5.00
2023-05-10T17:33:13.157Z,2.75
2023-05-10T17:35:39.510Z,5.00
2023-05-10T17:38:05.973Z,4.00
2023-05-10T17:40:32.324Z,5.00
2023-05-10T17:42:58.708Z,5.33
2023-05-10T17:48:08.820Z,5.00
2023-05-10T17:50:35.195Z,5.00
2023-05-10T17:53:01.555Z,4.00
2023-05-10T17:55:27.893Z,5.00
2023-05-10T17:57:54.224Z,4.33
2023-05-10T18:00:20.555Z,4.00
2023-05-10T18:02:46.934Z,4.00
2023-05-10T18:05:13.451Z,5.00
2023-05-10T18:07:40.042Z,6.00
2023-05-10T18:10:06.391Z,5.00
2023-05-10T18:12:32.905Z,3.33
2023-05-10T18:14:59.221Z,5.00
2023-05-10T18:17:25.601Z,6.00
2023-05-10T18:19:51.966Z,5.00
2023-05-10T18:22:18.489Z,5.00
2023-05-10T18:24:44.837Z,5.00
2023-05-10T18:27:11.206Z,3.33
2023-05-10T18:29:37.579Z,5.00
2023-05-10T18:32:03.962Z,5.00
2023-05-10T18:34:30.325Z,3.33
2023-05-10T18:36:56.684Z,3.33
2023-05-10T18:39:23.033Z,4.00
2023-05-10T18:41:49.382Z,6.00
2023-05-10T18:44:15.733Z,4.67
2023-05-10T18:46:42.173Z,4.67
2023-05-10T18:49:08.717Z,12.00
2023-05-10T18:51:35.150Z,12.50
2023-05-10T18:54:02.783Z,16.67
2023-05-10T18:56:29.294Z,18.00
2023-05-10T18:58:56.690Z,15.00
2023-05-10T19:01:24.072Z,14.00
2023-05-10T19:06:34.676Z,15.50
2023-05-10T19:09:01.156Z,17.50
2023-05-10T19:11:28.547Z,13.00
2023-05-10T19:13:54.970Z,12.00
2023-05-10T19:16:23.316Z,10.00
2023-05-10T19:19:01.358Z,9.00
2023-05-10T19:21:28.143Z,7.00
2023-05-10T19:23:54.520Z,5.67
2023-05-10T19:26:21.772Z,5.75
2023-05-10T19:28:49.118Z,14.67
2023-05-10T19:31:16.559Z,12.67
2023-05-10T19:33:43.028Z,11.00
2023-05-10T19:36:10.375Z,11.33
2023-05-10T19:38:36.889Z,10.50
2023-05-10T19:41:04.180Z,9.50
2023-05-10T19:43:34.226Z,7.83
2023-05-10T19:46:00.948Z,8.00
2023-05-10T19:48:27.344Z,6.50
2023-05-10T19:50:53.679Z,6.33
2023-05-10T19:53:21.011Z,11.00
2023-05-10T19:55:48.237Z,13.00
2023-05-10T19:58:14.716Z,8.00
2023-05-10T20:00:41.133Z,6.67
2023-05-10T20:03:09.326Z,6.00
2023-05-10T20:05:35.834Z,6.33
2023-05-10T20:08:02.190Z,6.00
2023-05-10T20:10:28.532Z,5.00
2023-05-10T20:12:54.864Z,5.00
2023-05-10T20:15:21.211Z,5.00
2023-05-10T20:17:47.687Z,5.00
2023-05-10T20:20:15.193Z,9.50
2023-05-10T20:22:42.529Z,15.00
2023-05-10T20:25:08.952Z,11.00
2023-05-10T20:27:35.396Z,8.00
2023-05-10T20:30:01.874Z,8.00
2023-05-10T20:32:28.278Z,7.00
2023-05-10T20:34:55.540Z,7.50
2023-05-10T20:37:21.940Z,7.00
2023-05-10T20:39:50.303Z,5.00
2023-05-10T20:42:16.861Z,5.00
2023-05-10T20:44:43.222Z,6.00
2023-05-10T20:47:09.588Z,4.33
2023-05-10T20:49:36.154Z,5.00
2023-05-10T20:52:02.527Z,4.67
2023-05-10T20:54:28.893Z,5.00
2023-05-10T20:56:55.267Z,6.00
2023-05-10T20:59:21.611Z,5.67
2023-05-10T21:01:48.027Z,5.33
2023-05-10T21:04:14.413Z,6.33
2023-05-10T21:06:40.739Z,5.67
2023-05-10T21:09:07.094Z,5.00
2023-05-10T21:11:36.002Z,5.00
2023-05-10T21:14:02.506Z,5.00
2023-05-10T21:16:28.889Z,4.00
2023-05-10T21:18:55.296Z,5.00
2023-05-10T21:21:21.625Z,4.00
2023-05-10T21:23:47.978Z,5.00
2023-05-10T21:26:14.368Z,6.00
2023-05-10T21:28:40.707Z,5.00
2023-05-10T21:31:07.122Z,5.33
2023-05-10T21:33:33.455Z,6.00
2023-05-10T21:35:59.907Z,5.00
2023-05-10T21:38:26.326Z,5.33
2023-05-10T21:40:52.891Z,5.67
2023-05-10T21:43:19.244Z,5.00
2023-05-10T21:45:48.390Z,0.00
2023-05-10T21:48:15.669Z,5.75
2023-05-10T21:50:42.025Z,5.33
2023-05-10T21:53:08.359Z,5.00
2023-05-10T21:55:34.702Z,3.00
2023-05-10T21:58:01.085Z,6.33
2023-05-10T22:00:27.448Z,7.00
2023-05-10T22:02:53.922Z,6.00
2023-05-10T22:05:21.208Z,5.25
2023-05-10T22:07:47.562Z,5.00
2023-05-10T22:10:13.930Z,5.00
2023-05-10T22:12:40.336Z,5.67
2023-05-10T22:15:10.484Z,6.00
2023-05-10T22:17:37.311Z,6.67
2023-05-10T22:20:03.711Z,5.67
2023-05-10T22:22:30.063Z,6.00
2023-05-10T22:24:56.510Z,11.00
2023-05-10T22:27:23.885Z,17.67
2023-05-10T22:29:50.323Z,13.50
2023-05-10T22:32:16.816Z,25.50
2023-05-10T22:34:43.316Z,20.00
2023-05-10T22:37:09.797Z,15.00
2023-05-10T22:39:37.174Z,14.00
2023-05-10T22:42:03.609Z,13.00
2023-05-10T22:44:31.937Z,11.40
2023-05-10T22:46:59.205Z,12.33
2023-05-10T22:49:25.650Z,10.00
2023-05-10T22:51:52.076Z,11.00
2023-05-10T22:54:19.301Z,6.00
2023-05-10T22:56:46.538Z,8.00
2023-05-10T22:59:12.911Z,7.67
2023-05-10T23:01:39.380Z,6.00
2023-05-10T23:04:05.815Z,6.00
2023-05-10T23:06:32.239Z,7.00
2023-05-10T23:08:58.568Z,5.00
2023-05-10T23:11:24.936Z,6.33
2023-05-10T23:13:51.286Z,6.00
2023-05-10T23:16:17.715Z,4.00
2023-05-10T23:18:44.106Z,4.67
2023-05-10T23:21:10.411Z,4.00
2023-05-10T23:23:36.806Z,6.00
2023-05-10T23:26:03.163Z,5.33
2023-05-10T23:28:29.503Z,6.00
2023-05-10T23:30:55.847Z,4.67
2023-05-10T23:33:22.215Z,5.33
2023-05-10T23:35:48.559Z,5.00
2023-05-10T23:38:14.912Z,5.00
2023-05-10T23:40:41.275Z,7.00
2023-05-10T23:43:07.617Z,4.33
2023-05-10T23:45:34.003Z,4.67
2023-05-10T23:48:00.474Z,5.00
2023-05-10T23:50:26.837Z,5.00
2023-05-10T23:52:53.190Z,4.67
2023-05-10T23:55:19.518Z,5.00
2023-05-10T23:57:45.820Z,6.00
